DW625Z SKMZ-SKPS
Flight info
| Callsign | DW625Z |
|---|---|
| Flight time | N/A |
| Altitude | 14001 |
| Route | MZL DCT PEI DCT ULQ DCT CLO DCT PPN DCT MER |
| Aircraft | DA62/L-SDFGRY/C |
Departure
| Time | 2026-05-05 19:25 |
|---|---|
| Airport | La Nubia Airport (SKMZ) |
Arrival
| Time | N/A |
|---|---|
| Airport | Antonio Nariño Airport (SKPS) |
| Time | Latitude | Longitude | Altitude | Speed | Heading |
|---|---|---|---|---|---|
| 2026-05-05 19:16 | 5.02941 | -75.46917 | 6798 ft | 0 kts | 122° |
| 2026-05-05 19:17 | 5.02940 | -75.46915 | 6798 ft | 2 kts | 116° |
| 2026-05-05 19:17 | 5.02953 | -75.46896 | 6800 ft | 5 kts | 24° |
| 2026-05-05 19:18 | 5.02984 | -75.46865 | 6804 ft | 5 kts | 87° |
| 2026-05-05 19:18 | 5.02998 | -75.46820 | 6809 ft | 8 kts | 54° |
| 2026-05-05 19:18 | 5.03019 | -75.46747 | 6816 ft | 12 kts | 92° |
| 2026-05-05 19:18 | 5.03009 | -75.46645 | 6827 ft | 15 kts | 97° |
| 2026-05-05 19:19 | 5.02998 | -75.46524 | 6841 ft | 17 kts | 94° |
| 2026-05-05 19:19 | 5.02990 | -75.46399 | 6857 ft | 17 kts | 95° |
| 2026-05-05 19:19 | 5.02977 | -75.46275 | 6874 ft | 17 kts | 95° |
| 2026-05-05 19:19 | 5.02968 | -75.46149 | 6891 ft | 17 kts | 94° |
| 2026-05-05 19:20 | 5.02959 | -75.46027 | 6908 ft | 14 kts | 90° |
| 2026-05-05 19:20 | 5.02965 | -75.45953 | 6918 ft | 8 kts | 85° |
| 2026-05-05 19:20 | 5.02957 | -75.45898 | 6926 ft | 7 kts | 162° |
| 2026-05-05 19:20 | 5.02952 | -75.45942 | 6920 ft | 0 kts | 273° |
| 2026-05-05 19:22 | 5.02957 | -75.46001 | 6912 ft | 29 kts | 275° |
| 2026-05-05 19:23 | 5.02994 | -75.46394 | 6859 ft | 64 kts | 289° |
| 2026-05-05 19:23 | 5.03034 | -75.46629 | 6830 ft | 46 kts | 278° |
| 2026-05-05 19:23 | 5.03060 | -75.46794 | 6812 ft | 7 kts | 284° |
| 2026-05-05 19:23 | 5.03026 | -75.47083 | 6784 ft | 71 kts | 268° |
| 2026-05-05 19:24 | 5.03039 | -75.47596 | 6986 ft | 71 kts | 278° |
| 2026-05-05 19:24 | 5.03081 | -75.48045 | 7234 ft | 63 kts | 277° |
| 2026-05-05 19:24 | 5.03168 | -75.48598 | 7307 ft | 87 kts | 280° |
| 2026-05-05 19:24 | 5.03248 | -75.49004 | 7424 ft | 95 kts | 282° |
| 2026-05-05 19:25 | 5.03376 | -75.49567 | 7574 ft | 106 kts | 283° |
| 2026-05-05 19:25 | 5.03583 | -75.50354 | 7761 ft | 122 kts | 285° |
| 2026-05-05 19:25 | 5.03833 | -75.51263 | 7942 ft | 136 kts | 284° |
| 2026-05-05 19:25 | 5.04092 | -75.52253 | 8113 ft | 145 kts | 284° |
| 2026-05-05 19:26 | 5.04366 | -75.53298 | 8280 ft | 152 kts | 284° |
| 2026-05-05 19:26 | 5.04331 | -75.54379 | 8434 ft | 156 kts | 243° |
| 2026-05-05 19:26 | 5.03514 | -75.55150 | 8608 ft | 158 kts | 213° |
| 2026-05-05 19:26 | 5.02555 | -75.55798 | 8767 ft | 161 kts | 215° |
| 2026-05-05 19:27 | 5.01647 | -75.56480 | 8920 ft | 162 kts | 218° |
| 2026-05-05 19:28 | 5.01024 | -75.56990 | 9020 ft | 158 kts | 220° |
| 2026-05-05 19:28 | 5.00186 | -75.57732 | 9169 ft | 155 kts | 223° |
| 2026-05-05 19:28 | 4.99433 | -75.58566 | 9321 ft | 153 kts | 230° |
| 2026-05-05 19:28 | 4.98725 | -75.59408 | 9474 ft | 152 kts | 230° |
| 2026-05-05 19:29 | 4.98021 | -75.60247 | 9627 ft | 152 kts | 230° |
| 2026-05-05 19:29 | 4.97301 | -75.61104 | 9784 ft | 151 kts | 230° |
| 2026-05-05 19:29 | 4.96596 | -75.61938 | 9939 ft | 151 kts | 230° |
| 2026-05-05 19:29 | 4.95882 | -75.62782 | 10095 ft | 151 kts | 230° |
| 2026-05-05 19:30 | 4.95174 | -75.63619 | 10251 ft | 151 kts | 230° |
| 2026-05-05 19:30 | 4.94457 | -75.64465 | 10408 ft | 151 kts | 230° |
| 2026-05-05 19:30 | 4.93739 | -75.65311 | 10566 ft | 151 kts | 230° |
| 2026-05-05 19:30 | 4.93031 | -75.66149 | 10722 ft | 151 kts | 229° |
| 2026-05-05 19:31 | 4.92326 | -75.66981 | 10876 ft | 151 kts | 229° |
| 2026-05-05 19:31 | 4.91617 | -75.67818 | 11032 ft | 151 kts | 229° |
| 2026-05-05 19:31 | 4.90898 | -75.68666 | 11190 ft | 151 kts | 229° |
| 2026-05-05 19:31 | 4.90171 | -75.69524 | 11349 ft | 151 kts | 229° |
| 2026-05-05 19:32 | 4.89458 | -75.70358 | 11504 ft | 152 kts | 229° |
| 2026-05-05 19:32 | 4.88721 | -75.71217 | 11631 ft | 154 kts | 229° |
| 2026-05-05 19:32 | 4.87973 | -75.72089 | 11655 ft | 161 kts | 229° |
| 2026-05-05 19:32 | 4.87188 | -75.73006 | 11658 ft | 167 kts | 229° |
| 2026-05-05 19:33 | 4.86361 | -75.73974 | 11657 ft | 171 kts | 229° |
| 2026-05-05 19:33 | 4.85529 | -75.74950 | 11656 ft | 174 kts | 229° |
| 2026-05-05 19:33 | 4.84677 | -75.75951 | 11654 ft | 175 kts | 229° |
| 2026-05-05 19:33 | 4.83850 | -75.76921 | 11654 ft | 175 kts | 229° |
| 2026-05-05 19:34 | 4.83019 | -75.77896 | 11654 ft | 176 kts | 229° |
| 2026-05-05 19:34 | 4.82199 | -75.78859 | 11654 ft | 176 kts | 229° |
| 2026-05-05 19:34 | 4.81364 | -75.79839 | 11654 ft | 177 kts | 229° |
| 2026-05-05 19:35 | 4.79713 | -75.81776 | 11654 ft | 177 kts | 229° |
| 2026-05-05 19:35 | 4.78687 | -75.82560 | 11657 ft | 177 kts | 208° |
| 2026-05-05 19:35 | 4.77552 | -75.83145 | 11655 ft | 177 kts | 207° |
| 2026-05-05 19:35 | 4.76415 | -75.83733 | 11654 ft | 177 kts | 207° |
| 2026-05-05 19:36 | 4.75258 | -75.84346 | 11654 ft | 177 kts | 208° |
| 2026-05-05 19:36 | 4.74109 | -75.84969 | 11654 ft | 177 kts | 208° |
| 2026-05-05 19:36 | 4.72969 | -75.85596 | 11654 ft | 177 kts | 209° |
| 2026-05-05 19:36 | 4.72511 | -75.85851 | 11654 ft | 177 kts | 209° |
| 2026-05-05 19:37 | 4.71395 | -75.86471 | 11653 ft | 177 kts | 209° |
| 2026-05-05 19:37 | 4.70267 | -75.87108 | 11653 ft | 177 kts | 209° |
| 2026-05-05 19:37 | 4.69163 | -75.87736 | 11653 ft | 177 kts | 209° |
| 2026-05-05 19:37 | 4.68037 | -75.88380 | 11653 ft | 177 kts | 210° |
| 2026-05-05 19:38 | 4.66932 | -75.89014 | 11653 ft | 177 kts | 210° |
| 2026-05-05 19:38 | 4.65810 | -75.89658 | 11653 ft | 177 kts | 210° |
| 2026-05-05 19:38 | 4.64653 | -75.90324 | 11653 ft | 177 kts | 210° |
| 2026-05-05 19:38 | 4.63521 | -75.90976 | 11653 ft | 177 kts | 210° |
| 2026-05-05 19:39 | 4.62372 | -75.91637 | 11653 ft | 177 kts | 210° |
| 2026-05-05 19:39 | 4.61228 | -75.92298 | 11653 ft | 177 kts | 210° |
| 2026-05-05 19:39 | 4.60100 | -75.92949 | 11653 ft | 177 kts | 210° |
| 2026-05-05 19:39 | 4.58936 | -75.93621 | 11653 ft | 177 kts | 210° |
| 2026-05-05 19:40 | 4.57815 | -75.94269 | 11653 ft | 177 kts | 210° |
| 2026-05-05 19:40 | 4.56710 | -75.94907 | 11653 ft | 177 kts | 210° |
| 2026-05-05 19:40 | 4.55572 | -75.95564 | 11653 ft | 177 kts | 210° |
| 2026-05-05 19:40 | 4.54458 | -75.96207 | 11653 ft | 177 kts | 210° |
| 2026-05-05 19:41 | 4.53305 | -75.96873 | 11653 ft | 177 kts | 210° |
| 2026-05-05 19:41 | 4.52199 | -75.97513 | 11653 ft | 177 kts | 210° |
| 2026-05-05 19:41 | 4.51120 | -75.98099 | 11645 ft | 177 kts | 199° |
| 2026-05-05 19:41 | 4.49869 | -75.98037 | 11660 ft | 176 kts | 167° |
| 2026-05-05 19:42 | 4.48673 | -75.97746 | 11567 ft | 182 kts | 165° |
| 2026-05-05 19:42 | 4.47377 | -75.97406 | 11315 ft | 187 kts | 165° |
| 2026-05-05 19:42 | 4.46030 | -75.97051 | 11055 ft | 190 kts | 165° |
| 2026-05-05 19:42 | 4.44761 | -75.96529 | 10777 ft | 192 kts | 136° |
| 2026-05-05 19:43 | 4.44271 | -75.95286 | 10530 ft | 191 kts | 88° |
| 2026-05-05 19:43 | 4.44600 | -75.93990 | 10290 ft | 191 kts | 75° |
| 2026-05-05 19:43 | 4.44738 | -75.92661 | 10037 ft | 191 kts | 85° |
| 2026-05-05 19:43 | 4.44829 | -75.91344 | 9789 ft | 191 kts | 87° |
| 2026-05-05 19:44 | 4.44940 | -75.90018 | 9539 ft | 190 kts | 83° |
| 2026-05-05 19:44 | 4.45063 | -75.88699 | 9287 ft | 188 kts | 84° |
| 2026-05-05 19:44 | 4.45179 | -75.87424 | 9032 ft | 182 kts | 85° |
| 2026-05-05 19:44 | 4.45287 | -75.86150 | 8774 ft | 179 kts | 85° |
| 2026-05-05 19:45 | 4.45388 | -75.84888 | 8515 ft | 176 kts | 85° |
| 2026-05-05 19:45 | 4.45484 | -75.83663 | 8260 ft | 174 kts | 85° |
| 2026-05-05 19:45 | 4.45619 | -75.82533 | 8012 ft | 172 kts | 71° |
| 2026-05-05 19:45 | 4.46458 | -75.81662 | 7759 ft | 170 kts | 26° |
| 2026-05-05 19:46 | 4.47562 | -75.81269 | 7516 ft | 168 kts | 13° |
| 2026-05-05 19:46 | 4.48705 | -75.81003 | 7267 ft | 168 kts | 12° |
| 2026-05-05 19:46 | 4.49833 | -75.80750 | 7018 ft | 167 kts | 12° |
| 2026-05-05 19:46 | 4.50988 | -75.80490 | 6763 ft | 166 kts | 12° |
| 2026-05-05 19:47 | 4.52158 | -75.80218 | 6502 ft | 165 kts | 14° |
| 2026-05-05 19:47 | 4.53322 | -75.79954 | 6241 ft | 164 kts | 12° |
| 2026-05-05 19:47 | 4.54410 | -75.79517 | 5962 ft | 164 kts | 43° |
| 2026-05-05 19:47 | 4.54863 | -75.78473 | 5701 ft | 163 kts | 89° |
| 2026-05-05 19:48 | 4.54689 | -75.77367 | 5694 ft | 148 kts | 101° |
| 2026-05-05 19:48 | 4.54211 | -75.76492 | 5667 ft | 139 kts | 143° |
| 2026-05-05 19:48 | 4.53324 | -75.76254 | 5642 ft | 121 kts | 183° |
| 2026-05-05 19:48 | 4.52513 | -75.76205 | 5664 ft | 100 kts | 174° |
| 2026-05-05 19:49 | 4.51825 | -75.76143 | 5510 ft | 101 kts | 174° |
| 2026-05-05 19:49 | 4.51124 | -75.76078 | 5312 ft | 103 kts | 174° |
| 2026-05-05 19:49 | 4.50422 | -75.76012 | 5122 ft | 103 kts | 174° |
| 2026-05-05 19:49 | 4.49755 | -75.75949 | 4980 ft | 93 kts | 174° |
| 2026-05-05 19:50 | 4.49096 | -75.75891 | 4761 ft | 95 kts | 177° |
| 2026-05-05 19:50 | 4.48434 | -75.75895 | 4560 ft | 93 kts | 182° |
| 2026-05-05 19:50 | 4.47799 | -75.75985 | 4375 ft | 92 kts | 192° |
| 2026-05-05 19:50 | 4.47180 | -75.76144 | 4209 ft | 90 kts | 194° |
| 2026-05-05 19:51 | 4.46565 | -75.76299 | 4079 ft | 86 kts | 194° |
| 2026-05-05 19:51 | 4.45982 | -75.76440 | 3984 ft | 81 kts | 193° |
| 2026-05-05 19:51 | 4.45523 | -75.76554 | 3983 ft | 36 kts | 193° |
| 2026-05-05 19:51 | 4.45424 | -75.76585 | 3983 ft | 9 kts | 213° |
| 2026-05-05 19:52 | 4.45372 | -75.76629 | 3983 ft | 10 kts | 242° |
| 2026-05-05 19:52 | 4.45365 | -75.76671 | 3983 ft | 3 kts | 278° |
| 2026-05-05 19:52 | 4.45397 | -75.76674 | 3983 ft | 6 kts | 16° |
| 2026-05-05 19:52 | 4.45423 | -75.76669 | 3983 ft | 3 kts | 330° |
| 2026-05-05 19:53 | 4.45431 | -75.76712 | 3983 ft | 4 kts | 276° |
| 2026-05-05 19:53 | 4.45431 | -75.76715 | 3983 ft | 0 kts | 272° |